Coleman, Florida
Current Conditions -  °F | °C
As of 9:55 PM on Monday 22 Dec 2014 (Local Time) from KINF Reporting Station
Scattered Clouds Scattered Clouds  
Wind Chill: 70°   Ceiling: Unl
Heat Index: 70°   Visibility: 7mi
Dew Point: 68°   Wind: 3mph
Humidity: 94%   Direction: 170°S
Pressure: 29.95"   Gusts: NA
Location:  28.8°N, 82.07°W
Report Text: KINF 230255Z AUTO 17003KT 7SM SCT100 SCT120 21/20 A2995 RMK AO2 LTG DSNT N AND W
Loading
Personal Weather Stations






























Interactive Weather Map New forecast layout! Learn more

10-Day Weather Forecast

Advertisements
Track Severe Weather on mobile